Terminal Aerodrome Forecast
Issued by NWS Missoula, MT

Home | Current Version | Previous Version | Text Only | Print | Product List | Glossary On
Versions: 1 2 3 4 5 6 7 8 9 10 11 12 13 14 15 16 17 18
810
FTUS45 KMSO 291120
TAFGPI
TAF
KGPI 291120Z 2912/3012 VRB05KT P6SM VCSH SCT015 BKN035
     FM291600 18009KT P6SM VCSH SCT020 BKN060
     FM300600 20010KT 5SM -SHRA BR BKN030 OVC050=

USA.gov is the U.S. government's official web portal to all federal, state and local government web resources and services.